This is the latest recevied weather packets stored in our database for station/object KD5VOO. If no packets are shown the sender has not sent any weather packets the latest 10 day(s).
| Time | Temp. | Humidity | Pressure | Rain* | Wind** | Luminosity | Snow |
|---|---|---|---|---|---|---|---|
| 1777662747 | 16.11° C | 77% | 1008.5 hPa | 7.11 mm | - | 3 W/m² | - |
| 1777662444 | 16.11° C | 77% | 1008.8 hPa | 8.89 mm | - | 5 W/m² | - |
| 1777662139 | 16.11° C | 77% | 1008.8 hPa | 5.33 mm | - | 3 W/m² | - |
| 1777661835 | 16.11° C | 77% | 1008.8 hPa | 7.11 mm | - | 5 W/m² | - |
| 1777661531 | 16.11° C | 77% | 1008.8 hPa | 10.92 mm | - | 4 W/m² | - |
| 1777661228 | 16.11° C | 77% | 1008.8 hPa | 12.7 mm | - | 7 W/m² | - |
| 1777660923 | 16.11° C | 77% | 1008.8 hPa | 8.89 mm | - | 5 W/m² | - |
| 1777660619 | 16.67° C | 77% | 1008.8 hPa | 7.11 mm | - | 4 W/m² | - |
| 1777660316 | 16.67° C | 77% | 1008.8 hPa | 5.33 mm | - | 5 W/m² | - |
| 1777660013 | 16.67° C | 76% | 1008.2 hPa | 3.56 mm | - | 12 W/m² | - |
| 1777659709 | 16.67° C | 76% | 1008.8 hPa | 3.56 mm | - | 11 W/m² | - |
| 1777659406 | 16.67° C | 76% | 1008.8 hPa | 1.78 mm | - | 17 W/m² | - |
| 1777659103 | 16.67° C | 76% | 1008.8 hPa | 0 mm | - | 7 W/m² | - |
| 1777658802 | 16.67° C | 77% | 1008.8 hPa | 0 mm | - | 5 W/m² | - |
| 1777658497 | 16.67° C | 77% | 1008.2 hPa | 0 mm | - | 28 W/m² | - |
| 1777658194 | 16.67° C | 77% | 1008.2 hPa | 0 mm | - | 22 W/m² | - |
| 1777657892 | 16.67° C | 77% | 1008.5 hPa | 0 mm | - | 20 W/m² | - |
| 1777657588 | 16.67° C | 77% | 1008.8 hPa | 0 mm | - | 19 W/m² | - |
| 1777657286 | 16.67° C | 77% | 1009.2 hPa | 0 mm | - | 21 W/m² | - |
| 1777656983 | 16.67° C | 77% | 1009.9 hPa | 0 mm | - | 11 W/m² | - |
| 1777656680 | 17.22° C | 77% | 1009.5 hPa | 0 mm | - | 27 W/m² | - |
| 1777656375 | 17.22° C | 77% | 1009.5 hPa | 0 mm | - | 22 W/m² | - |
| 1777656070 | 17.22° C | 77% | 1009.2 hPa | 0 mm | - | 23 W/m² | - |
| 1777655767 | 17.22° C | 78% | 1009.9 hPa | 0 mm | - | 27 W/m² | - |
| 1777655464 | 17.22° C | 78% | 1009.9 hPa | 0 mm | - | 29 W/m² | - |
* Rain latest hour (hover to see other rain measurements)
** Current wind speed in m/s (hover to see current wind gust speed)